Hartleyville, Indiana
Current Conditions -  °F | °C
As of 7:53 AM on Saturday 01 Nov 2014 (Local Time) from KBMG Reporting Station
Broken Clouds Broken Clouds  
Wind Chill: 20°   Ceiling: 4800
Heat Index: 31°   Visibility: 10mi
Dew Point: 23°   Wind: 15mph
Humidity: 72%   Direction: 360°N
Pressure: 30.28"   Gusts: 23mph
Location:  38.8737°N, 86.4563°W
Report Text: KBMG 011153Z 36013G20KT 10SM BKN048 M01/M05 A3028 RMK AO2 SLP259 70009 T10061050 10011 21006 51020
Loading
Personal Weather Stations






























Interactive Weather Map
Tropical Storm Tracking
New forecast layout! Learn more

10-Day Weather Forecast

Advertisements
Track Severe Weather on mobile